Terminal Aerodrome Forecast
Issued by NWS

Home | Current Version | Previous Version | Text Only | Print | Product List | Glossary On
Versions: 1 2 3 4 5 6 7 8 9 10 11 12 13 14 15 16
041
FTUS44 KLZK 110520
TAFHRO
TAF
KHRO 110520Z 1106/1206 VRB06KT P6SM SKC
     FM111000 03007KT P6SM SCT250
     FM112200 11004KT P6SM BKN250=

USA.gov is the U.S. government's official web portal to all federal, state and local government web resources and services.